createdAt,value
2017-09-22T00:00:03.834Z,0
2017-09-22T00:01:13.900Z,0
2017-09-22T00:02:24.250Z,0
2017-09-22T00:03:34.589Z,0
2017-09-22T00:04:44.287Z,0
2017-09-22T00:05:54.302Z,0
2017-09-22T00:07:04.637Z,0
2017-09-22T00:08:14.661Z,0
2017-09-22T00:09:24.690Z,0
2017-09-22T00:10:34.712Z,0
2017-09-22T00:11:45.042Z,0
2017-09-22T00:12:55.069Z,0
2017-09-22T00:14:05.416Z,0
2017-09-22T00:15:15.764Z,0
2017-09-22T00:16:26.103Z,0
2017-09-22T00:17:36.457Z,0
2017-09-22T00:18:46.489Z,0
2017-09-22T00:19:56.854Z,0
2017-09-22T00:21:06.866Z,0
2017-09-22T00:22:17.274Z,0
2017-09-22T00:23:27.621Z,0
2017-09-22T00:24:37.960Z,0
2017-09-22T00:25:47.974Z,0
2017-09-22T00:26:58.314Z,0
2017-09-22T00:28:08.652Z,0
2017-09-22T00:29:18.368Z,0
2017-09-22T00:30:28.917Z,0
2017-09-22T00:31:41.057Z,0
2017-09-22T00:32:51.395Z,0
2017-09-22T00:34:01.411Z,0
2017-09-22T00:35:11.123Z,0
2017-09-22T00:36:21.477Z,0
2017-09-22T00:37:31.823Z,0
2017-09-22T00:38:42.170Z,0
2017-09-22T00:39:52.510Z,0
2017-09-22T00:41:02.842Z,0
2017-09-22T00:42:13.187Z,0
2017-09-22T00:43:23.210Z,0
2017-09-22T00:44:32.910Z,0
2017-09-22T00:45:43.236Z,0
2017-09-22T00:46:53.580Z,0
2017-09-22T00:48:03.304Z,0
2017-09-22T00:49:13.643Z,0
2017-09-22T00:50:23.997Z,0
2017-09-22T00:51:34.337Z,0
2017-09-22T00:52:44.694Z,0
2017-09-22T00:53:55.040Z,0
2017-09-22T00:55:05.425Z,0
2017-09-22T00:56:15.757Z,0
2017-09-22T00:57:25.777Z,0
2017-09-22T00:58:36.117Z,0
2017-09-22T00:59:46.458Z,0
2017-09-22T01:00:56.846Z,0
2017-09-22T01:02:06.882Z,0
2017-09-22T01:03:17.230Z,0
2017-09-22T01:04:27.567Z,0
2017-09-22T01:05:37.892Z,0
2017-09-22T01:06:47.919Z,0
2017-09-22T01:07:57.942Z,0
2017-09-22T01:09:07.664Z,0
2017-09-22T01:10:17.370Z,0
2017-09-22T01:11:27.398Z,0
2017-09-22T01:12:37.424Z,0
2017-09-22T01:13:47.123Z,0
2017-09-22T01:14:57.147Z,0
2017-09-22T01:16:06.844Z,0
2017-09-22T01:17:16.861Z,0
2017-09-22T01:18:27.205Z,0
2017-09-22T01:19:37.524Z,0
2017-09-22T01:20:47.873Z,0
2017-09-22T01:22:00.253Z,0
2017-09-22T01:23:10.593Z,0
2017-09-22T01:24:20.331Z,0
2017-09-22T01:25:30.666Z,0
2017-09-22T01:26:41.051Z,0
2017-09-22T01:27:51.065Z,0
2017-09-22T01:29:01.419Z,0
2017-09-22T01:30:11.812Z,0
2017-09-22T01:31:22.171Z,0
2017-09-22T01:32:32.505Z,0
2017-09-22T01:33:42.532Z,0
2017-09-22T01:34:52.881Z,0
2017-09-22T01:36:03.234Z,0
2017-09-22T01:37:13.575Z,0
2017-09-22T01:38:23.598Z,0
2017-09-22T01:39:33.636Z,0
2017-09-22T01:40:43.975Z,0
2017-09-22T01:41:54.371Z,0
2017-09-22T01:43:04.396Z,0
2017-09-22T01:44:14.462Z,0
2017-09-22T01:45:24.807Z,0
2017-09-22T01:46:35.147Z,0
2017-09-22T01:47:45.518Z,0
2017-09-22T01:48:55.864Z,0
2017-09-22T01:50:06.214Z,0
2017-09-22T01:51:16.542Z,0
2017-09-22T01:52:26.863Z,0
2017-09-22T01:53:36.933Z,0
2017-09-22T01:54:47.264Z,0
2017-09-22T01:55:57.594Z,0
2017-09-22T01:57:07.956Z,0
2017-09-22T01:58:18.287Z,0
2017-09-22T01:59:27.990Z,0
2017-09-22T02:00:37.680Z,0
2017-09-22T02:01:48.014Z,0
2017-09-22T02:02:58.349Z,0
2017-09-22T02:04:08.379Z,0
2017-09-22T02:05:18.723Z,0
2017-09-22T02:06:28.752Z,0
2017-09-22T02:07:39.085Z,0
2017-09-22T02:08:49.442Z,0
2017-09-22T02:09:59.784Z,0
2017-09-22T02:11:09.816Z,0
2017-09-22T02:12:20.148Z,0
2017-09-22T02:13:30.499Z,0
2017-09-22T02:14:40.836Z,0
2017-09-22T02:15:51.177Z,0
2017-09-22T02:17:01.527Z,0
2017-09-22T02:18:11.872Z,0
2017-09-22T02:19:22.210Z,0
2017-09-22T02:20:31.902Z,0
2017-09-22T02:21:41.913Z,0
2017-09-22T02:22:51.950Z,0
2017-09-22T02:24:01.976Z,0
2017-09-22T02:25:11.988Z,0
2017-09-22T02:26:23.914Z,0
2017-09-22T02:27:34.243Z,0
2017-09-22T02:28:44.575Z,0
2017-09-22T02:29:54.918Z,0
2017-09-22T02:31:04.633Z,0
2017-09-22T02:32:14.962Z,0
2017-09-22T02:33:25.298Z,0
2017-09-22T02:34:35.731Z,0
2017-09-22T02:35:46.069Z,0
2017-09-22T02:36:56.415Z,0
2017-09-22T02:38:06.443Z,0
2017-09-22T02:39:16.790Z,0
2017-09-22T02:40:26.870Z,0
2017-09-22T02:41:37.199Z,0
2017-09-22T02:42:47.530Z,0
2017-09-22T02:43:57.865Z,0
2017-09-22T02:45:07.574Z,0
2017-09-22T02:46:17.915Z,0
2017-09-22T02:47:28.246Z,0
2017-09-22T02:48:38.590Z,0
2017-09-22T02:49:48.936Z,0
2017-09-22T02:50:58.962Z,0
2017-09-22T02:52:09.350Z,0
2017-09-22T02:53:19.707Z,0
2017-09-22T02:54:30.055Z,0
2017-09-22T02:55:40.418Z,0
2017-09-22T02:56:50.756Z,0
2017-09-22T02:58:01.148Z,0
2017-09-22T02:59:11.480Z,0
2017-09-22T03:00:21.503Z,0
2017-09-22T03:01:31.842Z,0
2017-09-22T03:33:39.101Z,0
2017-09-22T03:34:49.433Z,0
2017-09-22T03:35:59.751Z,0
2017-09-22T03:37:10.061Z,0
2017-09-22T03:38:20.079Z,0
2017-09-22T03:39:30.130Z,0
2017-09-22T03:40:40.142Z,0
2017-09-22T03:41:50.471Z,0
2017-09-22T03:43:00.483Z,0
2017-09-22T03:44:10.508Z,0
2017-09-22T03:45:20.532Z,0
2017-09-22T03:46:30.870Z,0
2017-09-22T03:47:40.894Z,0
2017-09-22T03:48:50.911Z,0
2017-09-22T03:50:00.971Z,0
2017-09-22T03:51:11.037Z,0
2017-09-22T03:52:20.744Z,0
2017-09-22T03:53:31.085Z,0
2017-09-22T03:54:41.419Z,0
2017-09-22T03:55:51.436Z,0
2017-09-22T03:57:01.804Z,0
2017-09-22T03:58:12.134Z,0
2017-09-22T03:59:22.481Z,0
2017-09-22T04:00:32.187Z,0
2017-09-22T04:01:42.214Z,0
2017-09-22T04:02:52.562Z,0
2017-09-22T04:04:02.593Z,0
2017-09-22T04:05:12.615Z,0
2017-09-22T04:06:22.644Z,0
2017-09-22T04:07:33.016Z,0
2017-09-22T04:08:43.406Z,0
2017-09-22T04:09:53.418Z,0
2017-09-22T04:11:03.449Z,0
2017-09-22T04:12:13.768Z,0
2017-09-22T04:13:23.800Z,0
2017-09-22T04:14:34.139Z,0
2017-09-22T04:15:44.158Z,0
2017-09-22T04:16:55.517Z,0
2017-09-22T04:18:05.852Z,0
2017-09-22T04:19:16.179Z,0
2017-09-22T04:20:26.567Z,0
2017-09-22T04:21:36.893Z,0
2017-09-22T04:22:46.912Z,0
2017-09-22T04:23:57.251Z,0
2017-09-22T04:25:07.281Z,0
2017-09-22T04:26:17.621Z,0
2017-09-22T04:27:27.652Z,0
2017-09-22T04:28:38.004Z,0
2017-09-22T04:29:48.032Z,0
2017-09-22T04:30:58.398Z,0
2017-09-22T04:32:08.425Z,0
2017-09-22T04:33:18.134Z,0
2017-09-22T04:34:28.167Z,0
2017-09-22T04:35:38.498Z,0
2017-09-22T04:36:48.530Z,0
2017-09-22T04:37:58.863Z,0
2017-09-22T04:39:08.561Z,0
2017-09-22T04:40:18.891Z,0
2017-09-22T04:41:29.221Z,0
2017-09-22T04:42:39.561Z,0
2017-09-22T04:43:49.992Z,0
2017-09-22T04:45:00.020Z,0
2017-09-22T04:46:10.360Z,0
2017-09-22T04:47:20.382Z,0
2017-09-22T04:48:30.411Z,0
2017-09-22T04:49:40.430Z,0
2017-09-22T04:50:50.773Z,0
2017-09-22T04:52:01.118Z,0
2017-09-22T04:53:11.450Z,0
2017-09-22T04:54:21.808Z,0
2017-09-22T04:55:31.874Z,0
2017-09-22T04:56:42.226Z,0
2017-09-22T04:57:52.580Z,0
2017-09-22T04:59:02.935Z,0
2017-09-22T05:00:13.277Z,5
2017-09-22T05:01:23.689Z,5
2017-09-22T05:02:34.044Z,5
2017-09-22T05:03:44.418Z,5
2017-09-22T05:04:54.750Z,5
2017-09-22T05:06:05.107Z,5
2017-09-22T05:07:15.499Z,5
2017-09-22T05:08:25.504Z,10
2017-09-22T05:09:35.855Z,10
2017-09-22T05:10:45.898Z,10
2017-09-22T05:11:55.924Z,10
2017-09-22T05:13:05.996Z,10
2017-09-22T05:14:16.354Z,10
2017-09-22T05:15:26.384Z,15
2017-09-22T05:16:36.747Z,15
2017-09-22T05:17:47.084Z,15
2017-09-22T05:18:56.840Z,15
2017-09-22T05:20:07.182Z,15
2017-09-22T05:21:16.902Z,15
2017-09-22T05:22:27.255Z,15
2017-09-22T05:23:37.612Z,15
2017-09-22T05:24:47.969Z,15
2017-09-22T05:25:58.007Z,15
2017-09-22T05:27:08.342Z,15
2017-09-22T05:28:18.676Z,15
2017-09-22T05:29:29.012Z,15
2017-09-22T05:30:38.718Z,15
2017-09-22T05:31:49.084Z,15
2017-09-22T05:32:59.426Z,15
2017-09-22T05:34:09.774Z,15
2017-09-22T05:35:20.117Z,15
2017-09-22T05:36:30.122Z,15
2017-09-22T05:37:40.451Z,15
2017-09-22T05:38:50.470Z,15
2017-09-22T05:40:01.045Z,15
2017-09-22T05:41:11.069Z,20
2017-09-22T05:42:20.765Z,20
2017-09-22T05:43:31.184Z,25
2017-09-22T05:44:41.533Z,25
2017-09-22T05:45:51.927Z,30
2017-09-22T05:47:02.267Z,30
2017-09-22T05:48:12.286Z,30
2017-09-22T05:49:22.321Z,35
2017-09-22T05:50:32.652Z,35
2017-09-22T05:51:42.354Z,35
2017-09-22T05:52:52.368Z,35
2017-09-22T05:54:02.392Z,35
2017-09-22T05:55:12.419Z,35
2017-09-22T05:56:22.766Z,35
2017-09-22T05:57:32.798Z,35
2017-09-22T05:58:42.816Z,35
2017-09-22T05:59:53.167Z,35
2017-09-22T06:01:03.527Z,35
2017-09-22T06:02:13.551Z,40
2017-09-22T06:03:23.888Z,40
2017-09-22T06:04:34.242Z,40
2017-09-22T06:05:43.952Z,40
2017-09-22T06:06:54.294Z,45
2017-09-22T06:08:04.654Z,45
2017-09-22T06:09:14.679Z,45
2017-09-22T06:10:25.034Z,45
2017-09-22T06:11:35.058Z,50
2017-09-22T06:12:45.390Z,50
2017-09-22T06:13:57.389Z,50
2017-09-22T06:15:07.738Z,50
2017-09-22T06:16:19.652Z,50
2017-09-22T06:17:30.048Z,50
2017-09-22T06:18:40.384Z,55
2017-09-22T06:19:50.707Z,55
2017-09-22T06:21:01.039Z,55
2017-09-22T06:22:11.381Z,60
2017-09-22T06:23:21.758Z,60
2017-09-22T06:24:32.110Z,60
2017-09-22T06:25:42.449Z,65
2017-09-22T06:26:52.491Z,65
2017-09-22T06:28:02.518Z,70
2017-09-22T06:29:12.902Z,70
2017-09-22T06:30:23.290Z,70
2017-09-22T06:31:33.304Z,75
2017-09-22T06:32:43.662Z,75
2017-09-22T06:33:53.362Z,75
2017-09-22T06:35:03.705Z,75
2017-09-22T06:36:14.046Z,80
2017-09-22T06:37:24.073Z,80
2017-09-22T06:38:34.425Z,85
2017-09-22T06:39:44.799Z,90
2017-09-22T06:40:55.206Z,85
2017-09-22T06:42:05.563Z,95
2017-09-22T06:43:17.561Z,90
2017-09-22T06:44:27.895Z,90
2017-09-22T06:45:37.921Z,95
2017-09-22T06:46:48.309Z,95
2017-09-22T06:47:58.806Z,100
2017-09-22T06:49:09.135Z,100
2017-09-22T06:50:19.474Z,105
2017-09-22T06:51:29.820Z,105
2017-09-22T06:52:39.858Z,105
2017-09-22T06:53:50.223Z,105
2017-09-22T06:55:00.579Z,105
2017-09-22T06:56:12.222Z,105
2017-09-22T06:57:22.297Z,105
2017-09-22T06:58:32.373Z,110
2017-09-22T06:59:42.714Z,110
2017-09-22T07:00:53.054Z,110
2017-09-22T07:02:03.085Z,110
2017-09-22T07:03:13.426Z,110
2017-09-22T07:04:23.815Z,110
2017-09-22T07:05:33.846Z,110
2017-09-22T07:06:44.189Z,110
2017-09-22T07:07:54.521Z,105
2017-09-22T07:09:04.866Z,105
2017-09-22T07:10:15.248Z,105
2017-09-22T07:11:25.256Z,105
2017-09-22T07:12:35.591Z,100
2017-09-22T07:13:45.934Z,95
2017-09-22T07:14:56.274Z,95
2017-09-22T07:16:06.356Z,90
2017-09-22T07:17:15.737Z,90
2017-09-22T07:18:26.077Z,90
2017-09-22T07:19:36.413Z,90
2017-09-22T07:20:46.126Z,95
2017-09-22T07:21:56.461Z,100
2017-09-22T07:23:06.488Z,105
2017-09-22T07:24:16.824Z,110
2017-09-22T07:25:27.170Z,120
2017-09-22T07:26:37.568Z,120
2017-09-22T07:27:47.905Z,130
2017-09-22T07:28:58.236Z,135
2017-09-22T07:30:08.257Z,135
2017-09-22T07:31:18.280Z,135
2017-09-22T07:32:28.656Z,140
2017-09-22T07:33:38.683Z,140
2017-09-22T07:34:48.706Z,140
2017-09-22T07:35:59.037Z,135
2017-09-22T07:37:09.389Z,135
2017-09-22T07:38:19.743Z,135
2017-09-22T07:39:29.755Z,135
2017-09-22T07:40:40.135Z,140
2017-09-22T07:41:50.466Z,140
2017-09-22T07:43:01.389Z,140
2017-09-22T07:44:11.783Z,145
2017-09-22T07:45:22.126Z,145
2017-09-22T07:46:31.833Z,145
2017-09-22T07:47:42.180Z,145
2017-09-22T07:48:52.527Z,140
2017-09-22T07:50:02.233Z,135
2017-09-22T07:51:12.576Z,125
2017-09-22T07:52:22.299Z,115
2017-09-22T07:53:32.658Z,110
2017-09-22T07:54:42.681Z,110
2017-09-22T07:55:52.706Z,110
2017-09-22T07:57:03.047Z,115
2017-09-22T07:58:13.394Z,115
2017-09-22T07:59:23.426Z,115
2017-09-22T08:00:33.459Z,120
2017-09-22T08:01:43.805Z,125
2017-09-22T08:02:54.145Z,125
2017-09-22T08:04:04.487Z,130
2017-09-22T08:05:14.511Z,130
2017-09-22T08:06:24.531Z,135
2017-09-22T08:07:34.881Z,130
2017-09-22T08:08:45.250Z,130
2017-09-22T08:09:55.244Z,130
2017-09-22T08:11:05.270Z,130
2017-09-22T08:12:15.654Z,130
2017-09-22T08:13:25.683Z,130
2017-09-22T08:14:36.026Z,125
2017-09-22T08:15:46.057Z,125
2017-09-22T08:16:56.085Z,130
2017-09-22T08:18:06.101Z,130
2017-09-22T08:19:16.117Z,125
2017-09-22T08:20:26.445Z,125
2017-09-22T08:21:36.795Z,125
2017-09-22T08:22:46.498Z,120
2017-09-22T08:23:56.200Z,120
2017-09-22T08:25:06.540Z,115
2017-09-22T08:26:16.894Z,120
2017-09-22T08:27:27.223Z,120
2017-09-22T08:28:37.260Z,125
2017-09-22T08:29:50.445Z,135
2017-09-22T08:31:00.805Z,140
2017-09-22T08:32:11.140Z,150
2017-09-22T08:33:21.185Z,150
2017-09-22T08:34:31.520Z,155
2017-09-22T08:35:41.863Z,155
2017-09-22T08:36:51.914Z,160
2017-09-22T08:38:02.249Z,165
2017-09-22T08:39:11.968Z,175
2017-09-22T08:40:22.000Z,180
2017-09-22T08:41:32.350Z,185
2017-09-22T08:42:42.067Z,185
2017-09-22T08:43:52.400Z,185
2017-09-22T08:45:02.744Z,185
2017-09-22T08:46:13.083Z,180
2017-09-22T08:47:23.479Z,195
2017-09-22T08:48:33.851Z,215
2017-09-22T08:49:43.897Z,240
2017-09-22T08:50:54.245Z,250
2017-09-22T08:52:03.966Z,270
2017-09-22T08:53:14.358Z,275
2017-09-22T08:54:24.699Z,275
2017-09-22T08:55:35.031Z,270
2017-09-22T08:56:45.377Z,270
2017-09-22T08:57:55.730Z,235
2017-09-22T08:59:06.124Z,205
2017-09-22T09:00:16.466Z,180
2017-09-22T09:01:26.806Z,170
2017-09-22T09:02:37.152Z,155
2017-09-22T09:03:47.498Z,145
2017-09-22T09:04:57.859Z,140
2017-09-22T09:06:08.208Z,130
2017-09-22T09:07:18.556Z,130
2017-09-22T09:08:28.920Z,130
2017-09-22T09:09:39.279Z,130
2017-09-22T09:10:49.617Z,135
2017-09-22T09:11:59.989Z,140
2017-09-22T09:13:10.009Z,145
2017-09-22T09:14:20.356Z,150
2017-09-22T09:15:32.037Z,160
2017-09-22T09:16:42.374Z,170
2017-09-22T09:17:52.433Z,180
2017-09-22T09:19:02.453Z,185
2017-09-22T09:20:12.797Z,190
2017-09-22T09:21:23.151Z,195
2017-09-22T09:22:33.507Z,200
2017-09-22T09:23:43.860Z,205
2017-09-22T09:24:53.886Z,205
2017-09-22T09:26:05.473Z,205
2017-09-22T09:27:15.824Z,205
2017-09-22T09:28:26.188Z,205
2017-09-22T09:29:36.534Z,205
2017-09-22T09:30:46.255Z,210
2017-09-22T09:31:56.594Z,215
2017-09-22T09:33:06.623Z,215
2017-09-22T09:34:16.708Z,215
2017-09-22T09:35:27.053Z,220
2017-09-22T09:36:37.407Z,220
2017-09-22T09:37:52.492Z,215
2017-09-22T09:39:02.529Z,215
2017-09-22T09:40:12.880Z,215
2017-09-22T09:41:22.917Z,220
2017-09-22T09:42:32.980Z,225
2017-09-22T09:43:42.981Z,225
2017-09-22T09:44:55.616Z,225
2017-09-22T09:46:07.400Z,225
2017-09-22T09:47:17.737Z,225
2017-09-22T09:48:28.082Z,230
2017-09-22T09:49:38.431Z,225
2017-09-22T09:50:48.784Z,235
2017-09-22T09:51:58.807Z,240
2017-09-22T09:53:09.145Z,240
2017-09-22T09:54:20.945Z,240
2017-09-22T09:55:31.282Z,245
2017-09-22T09:56:41.320Z,250
2017-09-22T09:57:51.921Z,245
2017-09-22T09:59:02.258Z,250
2017-09-22T10:00:12.283Z,245
2017-09-22T10:01:22.315Z,240
2017-09-22T10:02:32.354Z,240
2017-09-22T10:03:43.945Z,240
2017-09-22T10:04:53.971Z,240
2017-09-22T10:06:04.318Z,245
2017-09-22T10:07:14.655Z,245
2017-09-22T10:08:24.682Z,250
2017-09-22T10:09:35.062Z,250
2017-09-22T10:10:45.421Z,255
2017-09-22T10:11:55.773Z,260
2017-09-22T10:13:06.107Z,265
2017-09-22T10:14:16.446Z,255
2017-09-22T10:15:26.786Z,255
2017-09-22T10:16:37.132Z,255
2017-09-22T10:17:47.479Z,255
2017-09-22T10:18:57.828Z,255
2017-09-22T10:20:08.224Z,255
2017-09-22T10:21:18.571Z,255
2017-09-22T10:22:28.913Z,260
2017-09-22T10:23:39.255Z,255
2017-09-22T10:24:49.600Z,255
2017-09-22T10:26:00.015Z,265
2017-09-22T10:27:10.372Z,255
2017-09-22T10:28:20.083Z,265
2017-09-22T10:29:30.427Z,270
2017-09-22T10:30:40.464Z,260
2017-09-22T10:31:50.808Z,265
2017-09-22T10:33:01.165Z,280
2017-09-22T10:34:11.530Z,265
2017-09-22T10:35:21.658Z,265
2017-09-22T10:36:31.699Z,270
2017-09-22T10:37:41.740Z,270
2017-09-22T10:38:52.083Z,265
2017-09-22T10:40:02.429Z,265
2017-09-22T10:41:14.326Z,265
2017-09-22T10:42:24.367Z,260
2017-09-22T10:43:34.751Z,255
2017-09-22T10:44:45.113Z,250
2017-09-22T10:45:54.843Z,245
2017-09-22T10:47:05.405Z,235
2017-09-22T10:48:18.072Z,235
2017-09-22T10:49:28.433Z,235
2017-09-22T10:50:38.770Z,235
2017-09-22T10:51:48.802Z,235
2017-09-22T10:52:59.191Z,240
2017-09-22T10:54:09.546Z,230
2017-09-22T10:55:19.254Z,230
2017-09-22T10:56:29.606Z,225
2017-09-22T10:57:39.656Z,235
2017-09-22T10:58:50.045Z,235
2017-09-22T11:00:00.087Z,235
2017-09-22T11:01:10.428Z,235
2017-09-22T11:02:20.444Z,230
2017-09-22T11:03:30.799Z,225
2017-09-22T11:04:40.841Z,225
2017-09-22T11:05:50.858Z,220
2017-09-22T11:07:03.442Z,215
2017-09-22T11:08:13.781Z,215
2017-09-22T11:09:23.804Z,215
2017-09-22T11:10:34.159Z,215
2017-09-22T11:11:44.507Z,210
2017-09-22T11:12:54.540Z,210
2017-09-22T11:14:03.930Z,210
2017-09-22T11:15:14.276Z,210
2017-09-22T11:16:24.307Z,210
2017-09-22T11:17:34.651Z,205
2017-09-22T11:18:44.667Z,200
2017-09-22T11:19:54.692Z,195
2017-09-22T11:21:05.035Z,190
2017-09-22T11:22:15.443Z,190
2017-09-22T11:23:25.150Z,190
2017-09-22T11:24:34.864Z,195
2017-09-22T11:25:44.884Z,190
2017-09-22T11:26:54.925Z,185
2017-09-22T11:28:05.008Z,180
2017-09-22T11:29:15.343Z,175
2017-09-22T11:30:25.697Z,170
2017-09-22T11:31:36.044Z,170
2017-09-22T11:32:46.389Z,175
2017-09-22T11:33:56.769Z,175
2017-09-22T11:35:07.112Z,185
2017-09-22T11:36:17.458Z,195
2017-09-22T11:37:27.796Z,190
2017-09-22T11:38:37.819Z,180
2017-09-22T11:39:48.176Z,170
2017-09-22T11:40:58.537Z,155
2017-09-22T11:42:08.893Z,140
2017-09-22T11:43:18.282Z,130
2017-09-22T11:44:28.638Z,125
2017-09-22T11:45:39.025Z,135
2017-09-22T11:46:49.381Z,140
2017-09-22T11:47:59.721Z,135
2017-09-22T11:49:09.458Z,130
2017-09-22T11:50:19.822Z,125
2017-09-22T11:51:30.229Z,130
2017-09-22T11:52:40.565Z,130
2017-09-22T11:53:50.258Z,125
2017-09-22T11:55:00.601Z,115
2017-09-22T11:56:10.953Z,110
2017-09-22T11:57:21.350Z,100
2017-09-22T11:58:31.683Z,90
2017-09-22T11:59:41.716Z,90
2017-09-22T12:00:51.758Z,85
2017-09-22T12:02:04.689Z,85
2017-09-22T12:03:15.047Z,80
2017-09-22T12:04:25.416Z,80
2017-09-22T12:05:35.764Z,80
2017-09-22T12:06:45.806Z,75
2017-09-22T12:07:55.829Z,75
2017-09-22T12:09:05.849Z,70
2017-09-22T12:10:15.867Z,65
2017-09-22T12:11:26.203Z,65
2017-09-22T12:12:36.215Z,60
2017-09-22T12:13:46.552Z,55
2017-09-22T12:14:56.577Z,50
2017-09-22T12:16:06.909Z,50
2017-09-22T12:17:16.934Z,45
2017-09-22T12:18:26.968Z,50
2017-09-22T12:19:37.306Z,50
2017-09-22T12:20:49.547Z,55
2017-09-22T12:21:59.896Z,60
2017-09-22T12:23:10.251Z,60
2017-09-22T12:24:20.607Z,60
2017-09-22T12:25:30.970Z,60
2017-09-22T12:26:40.742Z,55
2017-09-22T12:27:51.102Z,55
2017-09-22T12:29:01.441Z,55
2017-09-22T12:30:11.795Z,55
2017-09-22T12:31:22.135Z,55
2017-09-22T12:32:32.468Z,55
2017-09-22T12:33:42.508Z,55
2017-09-22T12:34:52.838Z,55
2017-09-22T12:36:02.879Z,55
2017-09-22T12:37:13.231Z,50
2017-09-22T12:38:23.597Z,50
2017-09-22T12:39:33.930Z,45
2017-09-22T12:40:44.266Z,45
2017-09-22T12:41:54.609Z,45
2017-09-22T12:43:04.962Z,45
2017-09-22T12:44:15.377Z,40
2017-09-22T12:45:25.738Z,40
2017-09-22T12:46:35.125Z,40
2017-09-22T12:54:21.483Z,40
2017-09-22T12:55:34.537Z,40
2017-09-22T12:56:44.887Z,35
2017-09-22T12:57:57.286Z,35
2017-09-22T12:59:07.671Z,30
2017-09-22T13:00:18.023Z,30
2017-09-22T13:01:28.658Z,30
2017-09-22T13:02:38.704Z,30
2017-09-22T13:03:49.051Z,30
2017-09-22T13:04:59.438Z,30
2017-09-22T13:06:09.812Z,30
2017-09-22T13:07:20.166Z,30
2017-09-22T13:08:30.525Z,30
2017-09-22T13:09:42.089Z,25
2017-09-22T13:10:52.167Z,25
2017-09-22T13:12:02.515Z,25
2017-09-22T13:13:12.541Z,25
2017-09-22T13:14:22.591Z,25
2017-09-22T13:15:32.920Z,25
2017-09-22T13:16:42.955Z,30
2017-09-22T13:17:53.012Z,30
2017-09-22T13:19:03.363Z,35
2017-09-22T13:20:13.396Z,40
2017-09-22T13:21:23.425Z,45
2017-09-22T13:22:33.448Z,50
2017-09-22T13:23:43.816Z,65
2017-09-22T13:24:54.172Z,75
2017-09-22T13:26:04.205Z,80
2017-09-22T13:27:14.557Z,85
2017-09-22T13:28:24.268Z,90
2017-09-22T13:29:34.610Z,90
2017-09-22T13:30:44.948Z,90
2017-09-22T13:31:55.305Z,85
2017-09-22T13:33:05.654Z,80
2017-09-22T13:34:15.731Z,80
2017-09-22T13:35:26.094Z,75
2017-09-22T13:36:36.458Z,75
2017-09-22T13:37:46.797Z,75
2017-09-22T13:38:56.511Z,85
2017-09-22T13:40:06.592Z,95
2017-09-22T13:41:16.974Z,115
2017-09-22T13:42:27.363Z,135
2017-09-22T13:43:37.400Z,150
2017-09-22T13:44:47.746Z,170
2017-09-22T13:45:57.840Z,180
2017-09-22T13:47:07.889Z,185
2017-09-22T13:48:18.236Z,185
2017-09-22T13:49:28.597Z,180
2017-09-22T13:50:38.646Z,180
2017-09-22T13:51:49.074Z,175
2017-09-22T13:52:59.130Z,180
2017-09-22T13:54:09.470Z,175
2017-09-22T13:55:19.819Z,170
2017-09-22T13:56:30.186Z,160
2017-09-22T13:57:40.274Z,155
2017-09-22T13:58:50.633Z,155
2017-09-22T14:00:00.334Z,150
2017-09-22T14:01:10.703Z,140
2017-09-22T14:02:21.070Z,135
2017-09-22T14:03:31.411Z,135
2017-09-22T14:04:41.760Z,130
2017-09-22T14:05:51.781Z,125
2017-09-22T14:07:02.140Z,120
2017-09-22T14:08:11.856Z,120
2017-09-22T14:09:22.250Z,115
2017-09-22T14:10:32.617Z,120
2017-09-22T14:11:42.977Z,120
2017-09-22T14:12:55.671Z,120
2017-09-22T14:14:06.043Z,120
2017-09-22T14:15:16.412Z,120
2017-09-22T14:16:26.445Z,125
2017-09-22T14:17:36.468Z,120
2017-09-22T14:18:46.806Z,125
2017-09-22T14:19:57.160Z,120
2017-09-22T14:21:07.512Z,120
2017-09-22T14:22:17.860Z,120
2017-09-22T14:23:28.269Z,120
2017-09-22T14:24:40.376Z,115
2017-09-22T14:25:50.741Z,115
2017-09-22T14:27:00.767Z,115
2017-09-22T14:28:11.123Z,115
2017-09-22T14:29:21.146Z,110
2017-09-22T14:30:31.505Z,110
2017-09-22T14:31:41.854Z,110
2017-09-22T14:32:51.910Z,110
2017-09-22T14:34:01.933Z,110
2017-09-22T14:35:12.273Z,110
2017-09-22T14:36:22.618Z,105
2017-09-22T14:37:32.957Z,100
2017-09-22T14:38:43.301Z,95
2017-09-22T14:39:53.649Z,95
2017-09-22T14:41:03.983Z,95
2017-09-22T14:42:14.345Z,95
2017-09-22T14:43:24.373Z,95
2017-09-22T14:44:34.403Z,95
2017-09-22T14:45:44.755Z,95
2017-09-22T14:46:54.212Z,95
2017-09-22T14:48:04.560Z,95
2017-09-22T14:49:14.913Z,95
2017-09-22T14:50:26.567Z,95
2017-09-22T14:51:36.594Z,95
2017-09-22T14:52:46.629Z,90
2017-09-22T14:53:56.983Z,90
2017-09-22T14:55:07.341Z,90
2017-09-22T14:56:17.366Z,85
2017-09-22T14:57:27.402Z,90
2017-09-22T14:58:37.762Z,90
2017-09-22T14:59:48.122Z,90
2017-09-22T15:00:58.473Z,90
2017-09-22T15:02:08.827Z,90
2017-09-22T15:03:19.183Z,90
2017-09-22T15:04:29.570Z,85
2017-09-22T15:05:39.937Z,80
2017-09-22T15:06:50.296Z,80
2017-09-22T15:08:00.334Z,75
2017-09-22T15:09:12.452Z,75
2017-09-22T15:10:22.880Z,75
2017-09-22T15:11:33.235Z,80
2017-09-22T15:12:43.257Z,95
2017-09-22T15:13:53.650Z,80
2017-09-22T15:15:04.003Z,80
2017-09-22T15:16:14.034Z,85
2017-09-22T15:17:26.247Z,90
2017-09-22T15:18:36.601Z,90
2017-09-22T15:19:46.990Z,90
2017-09-22T15:20:57.348Z,80
2017-09-22T15:22:07.700Z,75
2017-09-22T15:23:18.052Z,65
2017-09-22T15:24:28.412Z,60
2017-09-22T15:25:39.696Z,60
2017-09-22T15:26:50.052Z,60
2017-09-22T15:28:00.089Z,60
2017-09-22T15:29:10.125Z,60
2017-09-22T15:30:20.472Z,90
2017-09-22T15:31:30.837Z,90
2017-09-22T15:32:41.199Z,85
2017-09-22T15:33:51.551Z,85
2017-09-22T15:35:01.899Z,85
2017-09-22T15:36:12.265Z,80
2017-09-22T15:37:22.659Z,80
2017-09-22T15:38:33.038Z,80
2017-09-22T15:39:43.402Z,80
2017-09-22T15:40:53.780Z,75
2017-09-22T15:42:04.161Z,75
2017-09-22T15:43:14.546Z,65
2017-09-22T15:44:24.924Z,70
2017-09-22T15:45:35.278Z,70
2017-09-22T15:46:45.641Z,70
2017-09-22T15:47:56.003Z,70
2017-09-22T15:49:08.257Z,70
2017-09-22T15:50:18.631Z,65
2017-09-22T15:51:30.418Z,65
2017-09-22T15:52:40.762Z,65
2017-09-22T15:53:51.144Z,60
2017-09-22T15:55:03.017Z,60
2017-09-22T15:56:13.378Z,60
2017-09-22T15:57:24.869Z,60
2017-09-22T15:58:35.020Z,55
2017-09-22T15:59:45.416Z,55
2017-09-22T16:00:55.859Z,55
2017-09-22T16:02:06.260Z,50
2017-09-22T16:03:16.681Z,55
2017-09-22T16:04:27.082Z,55
2017-09-22T16:05:37.489Z,50
2017-09-22T16:06:47.949Z,50
2017-09-22T16:07:58.298Z,50
2017-09-22T16:09:08.351Z,45
2017-09-22T16:10:18.720Z,40
2017-09-22T16:11:29.082Z,35
2017-09-22T16:12:39.188Z,35
2017-09-22T16:13:49.631Z,30
2017-09-22T16:14:59.998Z,30
2017-09-22T16:16:10.067Z,30
2017-09-22T16:17:20.474Z,30
2017-09-22T16:18:30.847Z,30
2017-09-22T16:19:41.245Z,25
2017-09-22T16:20:51.315Z,25
2017-09-22T16:22:03.947Z,25
2017-09-22T16:23:14.330Z,25
2017-09-22T16:24:24.726Z,20
2017-09-22T16:25:35.117Z,20
2017-09-22T16:26:45.159Z,20
2017-09-22T16:27:55.570Z,20
2017-09-22T16:29:05.654Z,20
2017-09-22T16:30:16.060Z,15
2017-09-22T16:31:26.464Z,15
2017-09-22T16:32:36.517Z,15
2017-09-22T16:33:46.911Z,15
2017-09-22T16:34:57.295Z,15
2017-09-22T16:36:07.727Z,15
2017-09-22T16:37:18.119Z,10
2017-09-22T16:38:28.189Z,10
2017-09-22T16:39:38.585Z,10
2017-09-22T16:40:48.668Z,10
2017-09-22T16:41:59.105Z,10
2017-09-22T16:43:09.482Z,10
2017-09-22T16:44:19.878Z,5
2017-09-22T16:45:31.028Z,5
2017-09-22T16:46:41.464Z,5
2017-09-22T16:47:51.874Z,5
2017-09-22T16:49:02.242Z,5
2017-09-22T16:50:12.649Z,5
2017-09-22T16:51:23.037Z,5
2017-09-22T16:52:33.075Z,0
2017-09-22T16:53:43.515Z,0
2017-09-22T16:54:53.906Z,0
2017-09-22T16:56:04.311Z,0
2017-09-22T16:57:14.714Z,0
2017-09-22T16:58:24.764Z,0
2017-09-22T16:59:34.919Z,0
2017-09-22T17:00:45.424Z,0
2017-09-22T17:01:55.488Z,0
2017-09-22T17:03:05.886Z,0
2017-09-22T17:04:16.266Z,0
2017-09-22T17:05:26.695Z,0
2017-09-22T17:06:36.754Z,0
2017-09-22T17:07:46.497Z,0
2017-09-22T17:08:56.887Z,0
2017-09-22T17:10:06.989Z,0
2017-09-22T17:11:17.442Z,0
2017-09-22T17:12:27.879Z,0
2017-09-22T17:13:38.255Z,0
2017-09-22T17:14:48.628Z,0
2017-09-22T17:15:59.015Z,0
2017-09-22T17:17:08.810Z,0
2017-09-22T17:18:19.180Z,0